Time;durP1;ratioP1;P1;durP2;ratioP2;P2;SDS_P1;SDS_P2;PMS_P1;PMS_P2;Temp;Humidity;BMP_temperature;BMP_pressure;BME280_temperature;BME280_humidity;BME280_pressure;Samples;Min_cycle;Max_cycle;Signal;HPM_P1;HPM_P2
2022/11/22 02:00:01;;;;;;;6.67;3.33;;;9.20;98.40;;;;;;5016576;28;20672;-72
2022/11/22 02:02:27;;;;;;;;;;;9.20;98.30;;;;;;5032307;28;20100;-72
2022/11/22 02:04:56;;;;;;;4.20;2.50;;;9.20;98.30;;;;;;5033233;28;19909;-72
2022/11/22 02:07:32;;;;;;;6.10;2.70;;;9.20;98.30;;;;;;5034273;28;20033;-72
2022/11/22 02:09:58;;;;;;;3.97;2.23;;;9.20;98.50;;;;;;5034527;28;20041;-71
2022/11/22 02:12:27;;;;;;;5.33;2.60;;;9.20;98.50;;;;;;5034488;28;20041;-72
2022/11/22 02:14:54;;;;;;;5.37;2.80;;;9.20;98.50;;;;;;5034265;28;20034;-73
2022/11/22 02:17:20;;;;;;;3.83;2.50;;;9.30;98.60;;;;;;5034436;28;20061;-72
2022/11/22 02:19:48;;;;;;;5.23;2.53;;;9.30;98.80;;;;;;5034414;28;20061;-72
2022/11/22 02:22:32;;;;;;;4.10;2.10;;;9.30;98.90;;;;;;5034053;28;20040;-72
2022/11/22 02:25:12;;;;;;;3.30;2.27;;;9.30;98.80;;;;;;5034141;28;20044;-73
2022/11/22 02:27:38;;;;;;;3.37;1.90;;;9.30;98.80;;;;;;5034028;28;20057;-72
2022/11/22 02:30:04;;;;;;;4.50;2.13;;;9.30;98.90;;;;;;5034227;28;20041;-72
2022/11/22 02:32:30;;;;;;;2.83;2.13;;;9.30;98.90;;;;;;5033961;28;20124;-72
2022/11/22 02:34:56;;;;;;;5.17;2.23;;;9.30;98.90;;;;;;5034037;28;20129;-72
2022/11/22 02:37:25;;;;;;;3.13;2.20;;;9.30;99.20;;;;;;5033506;28;20033;-71
2022/11/22 02:39:56;;;;;;;3.90;2.57;;;9.30;99.00;;;;;;5034306;28;20034;-72
2022/11/22 02:42:24;;;;;;;4.37;2.30;;;9.30;99.00;;;;;;5034001;28;20033;-71
2022/11/22 02:44:49;;;;;;;6.30;2.10;;;9.30;99.20;;;;;;5033802;28;20120;-71
2022/11/22 02:47:15;;;;;;;3.40;1.83;;;9.30;99.20;;;;;;5033843;28;20543;-72
2022/11/22 02:49:41;;;;;;;3.40;2.37;;;9.30;99.40;;;;;;5033957;28;20037;-72
2022/11/22 02:52:07;;;;;;;4.57;2.63;;;9.30;99.30;;;;;;5033280;28;20160;-71
2022/11/22 02:54:33;;;;;;;6.03;2.80;;;9.30;99.30;;;;;;5033796;28;20041;-71
2022/11/22 02:56:58;;;;;;;3.77;2.57;;;9.30;99.40;;;;;;5034066;28;20026;-72
2022/11/22 02:59:24;;;;;;;5.83;2.80;;;9.40;99.30;;;;;;5033282;28;20049;-72
2022/11/22 03:01:50;;;;;;;4.57;3.57;;;9.40;99.10;;;;;;5033694;28;20038;-71
2022/11/22 03:04:23;;;;;;;5.07;2.93;;;9.40;99.20;;;;;;5033731;28;20057;-72
2022/11/22 03:06:54;;;;;;;5.10;3.43;;;9.40;99.20;;;;;;5033771;28;20033;-71
2022/11/22 03:09:20;;;;;;;5.30;3.13;;;9.40;99.30;;;;;;5033788;28;20147;-73
2022/11/22 03:11:46;;;;;;;7.00;3.23;;;9.40;99.10;;;;;;5033731;28;20431;-72
2022/11/22 03:14:14;;;;;;;3.77;2.70;;;9.40;98.70;;;;;;5033257;28;20045;-72
2022/11/22 03:16:39;;;;;;;5.73;2.97;;;9.40;98.70;;;;;;5033467;28;20040;-71
2022/11/22 03:19:05;;;;;;;5.77;2.70;;;9.40;98.80;;;;;;5033496;28;20484;-71
2022/11/22 03:21:31;;;;;;;4.00;2.57;;;9.40;98.80;;;;;;5033232;28;20033;-73
2022/11/22 03:23:57;;;;;;;5.50;2.40;;;9.40;98.90;;;;;;5033442;28;20044;-72
2022/11/22 03:26:23;;;;;;;3.90;2.20;;;9.30;99.30;;;;;;5033388;28;20108;-71
2022/11/22 03:28:48;;;;;;;3.13;2.33;;;9.40;99.10;;;;;;5033195;28;20038;-71
2022/11/22 03:31:14;;;;;;;3.57;2.63;;;9.40;99.10;;;;;;5033089;28;20156;-72
2022/11/22 03:33:39;;;;;;;4.23;2.03;;;9.40;99.00;;;;;;5033140;28;20053;-71
2022/11/22 03:36:05;;;;;;;4.03;2.57;;;9.30;99.00;;;;;;5033532;28;20039;-71
2022/11/22 03:38:32;;;;;;;5.13;2.10;;;9.40;99.00;;;;;;5032988;28;20041;-71
2022/11/22 03:40:58;;;;;;;4.30;1.83;;;9.40;99.10;;;;;;5033297;28;20045;-71
2022/11/22 03:43:24;;;;;;;2.77;1.90;;;9.40;99.10;;;;;;5033080;28;20484;-71
2022/11/22 03:45:49;;;;;;;2.60;1.80;;;9.40;99.30;;;;;;5033047;28;20391;-71
2022/11/22 03:48:15;;;;;;;7.73;2.27;;;9.40;99.00;;;;;;5032900;28;20123;-73
2022/11/22 03:50:41;;;;;;;2.87;2.10;;;9.40;99.00;;;;;;5032810;28;20033;-72
2022/11/22 03:53:07;;;;;;;5.40;2.10;;;9.40;99.00;;;;;;5032781;28;20499;-72
2022/11/22 03:55:32;;;;;;;6.17;2.20;;;9.40;99.10;;;;;;5032989;28;20088;-71
2022/11/22 03:57:58;;;;;;;4.23;2.37;;;9.40;99.10;;;;;;5033018;28;20137;-71
2022/11/22 04:00:24;;;;;;;4.30;2.07;;;9.40;99.10;;;;;;5032394;28;20034;-71
2022/11/22 04:02:50;;;;;;;3.03;2.17;;;9.40;99.10;;;;;;5032947;28;20423;-72
2022/11/22 04:05:16;;;;;;;5.33;2.10;;;9.40;99.20;;;;;;5036859;28;20484;-71
2022/11/22 04:07:41;;;;;;;12.13;9.90;;;9.40;99.20;;;;;;5036954;28;20063;-71
2022/11/22 04:10:08;;;;;;;8.83;5.40;;;9.40;99.20;;;;;;5036960;28;20044;-72
2022/11/22 04:12:34;;;;;;;4.57;2.53;;;9.40;99.20;;;;;;5036887;28;20526;-71
2022/11/22 04:15:05;;;;;;;3.07;2.23;;;9.40;99.30;;;;;;5036566;28;20029;-72
2022/11/22 04:17:46;;;;;;;9.70;2.10;;;9.40;99.30;;;;;;5036921;28;20403;-72
2022/11/22 04:23:15;;;;;;;8.90;1.70;;;9.40;99.20;;;;;;5036584;28;20044;-71
2022/11/22 04:25:44;;;;;;;3.33;1.60;;;9.40;99.30;;;;;;5036826;28;20069;-72
2022/11/22 04:28:11;;;;;;;4.77;1.33;;;9.40;99.30;;;;;;5036525;28;20036;-72
2022/11/22 04:33:21;;;;;;;4.13;1.23;;;9.40;99.30;;;;;;5036334;28;20056;-70
2022/11/22 04:35:48;;;;;;;2.40;1.70;;;9.40;99.30;;;;;;5036449;28;20034;-72
2022/11/22 04:38:15;;;;;;;3.10;1.30;;;9.50;99.20;;;;;;5036866;28;20052;-72
2022/11/22 04:40:41;;;;;;;4.27;1.33;;;9.50;99.20;;;;;;5036239;28;20530;-72
2022/11/22 04:45:53;;;;;;;3.27;1.30;;;9.50;99.40;;;;;;5036271;28;20127;-73
2022/11/22 04:48:19;;;;;;;4.13;1.40;;;9.50;99.20;;;;;;5036191;28;20494;-73
2022/11/22 04:53:29;;;;;;;4.47;1.50;;;9.50;99.20;;;;;;5036456;28;20513;-72
2022/11/22 04:55:55;;;;;;;3.15;1.60;;;9.50;99.30;;;;;;5036364;28;20069;-72
2022/11/22 04:58:21;;;;;;;3.35;1.55;;;9.50;99.30;;;;;;5036107;28;20037;-72
2022/11/22 05:00:47;;;;;;;3.60;1.70;;;9.50;99.30;;;;;;5035637;28;20376;-71
2022/11/22 05:03:13;;;;;;;1.67;1.20;;;9.50;99.70;;;;;;5035920;28;20044;-71
2022/11/22 05:05:41;;;;;;;4.37;1.77;;;9.50;99.40;;;;;;5035810;28;20037;-71
2022/11/22 05:08:08;;;;;;;2.17;1.40;;;9.50;99.40;;;;;;5036191;28;20033;-72
2022/11/22 05:13:20;;;;;;;5.77;1.40;;;9.50;99.40;;;;;;5035744;28;20139;-72
2022/11/22 05:15:46;;;;;;;4.00;1.60;;;9.50;99.40;;;;;;5035244;28;20053;-71
2022/11/22 05:18:12;;;;;;;4.43;1.93;;;9.50;99.30;;;;;;5035789;28;20080;-71
2022/11/22 05:20:38;;;;;;;5.47;1.60;;;9.50;99.40;;;;;;5035767;28;20041;-71
2022/11/22 05:25:49;;;;;;;2.40;1.40;;;9.50;99.30;;;;;;5035704;28;20521;-71
2022/11/22 05:28:14;;;;;;;3.00;1.40;;;9.50;99.20;;;;;;5050405;28;20495;-72
2022/11/22 05:30:40;;;;;;;3.83;1.97;;;9.50;99.30;;;;;;5055486;28;20048;-74
2022/11/22 05:33:06;;;;;;;4.80;1.67;;;9.50;99.20;;;;;;5055127;28;20045;-72
2022/11/22 05:35:32;;;;;;;2.23;1.30;;;9.50;99.30;;;;;;5054940;28;20040;-71
2022/11/22 05:37:58;;;;;;;3.17;1.57;;;9.50;99.30;;;;;;5055292;28;20075;-71
2022/11/22 05:40:25;;;;;;;5.00;2.07;;;9.50;99.20;;;;;;5055285;28;20065;-71
2022/11/22 05:42:51;;;;;;;7.03;1.73;;;9.50;99.20;;;;;;5055367;28;20472;-72
2022/11/22 05:45:17;;;;;;;2.43;1.67;;;9.50;99.20;;;;;;5055136;28;20040;-71
2022/11/22 05:47:43;;;;;;;2.93;1.40;;;9.50;99.10;;;;;;5054849;28;20123;-71
2022/11/22 05:50:09;;;;;;;4.53;1.60;;;9.60;99.00;;;;;;5054913;28;20107;-71
2022/11/22 05:52:35;;;;;;;5.30;2.00;;;9.50;98.90;;;;;;5054953;28;20045;-72
2022/11/22 05:55:00;;;;;;;3.42;2.00;;;9.50;99.00;;;;;;5055089;28;20112;-72
2022/11/22 05:57:26;;;;;;;4.07;2.00;;;9.50;98.90;;;;;;5054885;28;20033;-71
2022/11/22 05:59:52;;;;;;;3.50;2.10;;;9.50;98.90;;;;;;5054593;28;20079;-71
2022/11/22 06:02:18;;;;;;;3.27;2.00;;;9.50;98.80;;;;;;5054522;28;20087;-71
2022/11/22 06:04:43;;;;;;;2.87;1.93;;;9.50;98.70;;;;;;5054740;28;20033;-71
2022/11/22 06:07:09;;;;;;;4.23;2.07;;;9.50;98.60;;;;;;5054585;28;20033;-71
2022/11/22 06:09:35;;;;;;;3.10;1.93;;;9.50;98.50;;;;;;5054596;28;20109;-71
2022/11/22 06:12:01;;;;;;;4.83;1.90;;;9.50;98.50;;;;;;5054302;28;20040;-71
2022/11/22 06:14:26;;;;;;;2.93;1.83;;;9.50;98.40;;;;;;5054498;28;20809;-71
2022/11/22 06:16:52;;;;;;;6.97;2.37;;;9.60;98.20;;;;;;5054648;28;20044;-71
2022/11/22 06:19:18;;;;;;;5.37;2.33;;;9.50;97.90;;;;;;5054416;28;20037;-72
2022/11/22 06:21:43;;;;;;;2.83;2.08;;;9.50;98.10;;;;;;5054446;28;20083;-71
2022/11/22 06:24:09;;;;;;;6.67;2.40;;;9.50;98.10;;;;;;5054140;28;20029;-71
2022/11/22 06:26:36;;;;;;;3.77;2.30;;;9.50;98.20;;;;;;5053663;28;20033;-71
2022/11/22 06:29:02;;;;;;;5.37;1.97;;;9.50;98.20;;;;;;5054226;28;20087;-72
2022/11/22 06:31:28;;;;;;;6.60;2.40;;;9.50;98.10;;;;;;5054395;28;20032;-71
2022/11/22 06:33:55;;;;;;;7.10;2.73;;;9.50;98.10;;;;;;5054041;28;20384;-71
2022/11/22 06:36:26;;;;;;;3.97;2.42;;;9.50;98.10;;;;;;5054307;28;20029;-72
2022/11/22 06:38:52;;;;;;;2.60;2.10;;;9.50;98.00;;;;;;5053678;28;20060;-71
2022/11/22 06:41:20;;;;;;;4.23;2.53;;;9.50;97.80;;;;;;5054060;28;20479;-71
2022/11/22 06:43:48;;;;;;;4.57;2.30;;;9.50;97.70;;;;;;5054388;28;20032;-72
2022/11/22 06:46:15;;;;;;;6.10;2.40;;;9.40;97.70;;;;;;5053756;28;20044;-72
2022/11/22 06:48:42;;;;;;;4.87;2.30;;;9.50;97.70;;;;;;5053730;28;20091;-71
2022/11/22 06:51:19;;;;;;;6.30;2.33;;;9.50;97.60;;;;;;5053587;28;20071;-71
2022/11/22 06:53:46;;;;;;;4.10;2.37;;;9.50;97.60;;;;;;5053968;28;20049;-71
2022/11/22 06:56:14;;;;;;;7.20;4.83;;;9.50;97.50;;;;;;5053964;28;20029;-71
2022/11/22 06:58:40;;;;;;;9.00;3.40;;;9.50;97.40;;;;;;5053538;28;20033;-71
2022/11/22 07:01:09;;;;;;;6.53;3.03;;;9.50;97.30;;;;;;5053400;28;20037;-72
2022/11/22 07:03:36;;;;;;;3.83;2.17;;;9.50;97.20;;;;;;5052398;28;20079;-72
2022/11/22 07:06:02;;;;;;;4.50;2.33;;;9.60;97.10;;;;;;5049884;28;20108;-71
2022/11/22 07:08:35;;;;;;;4.03;1.57;;;9.60;96.90;;;;;;5032904;28;20037;-72
2022/11/22 07:11:02;;;;;;;3.90;2.03;;;9.60;96.50;;;;;;5032927;28;20030;-71
2022/11/22 07:13:27;;;;;;;4.63;1.77;;;9.60;96.20;;;;;;5032751;28;20076;-72
2022/11/22 07:15:57;;;;;;;4.50;2.57;;;9.60;96.10;;;;;;5032943;28;20072;-71
2022/11/22 07:18:23;;;;;;;9.10;2.03;;;9.60;96.00;;;;;;5045461;28;20538;-70
2022/11/22 07:20:49;;;;;;;6.20;2.03;;;9.60;95.90;;;;;;5052907;28;20036;-71
2022/11/22 07:23:15;;;;;;;4.27;1.80;;;9.70;95.60;;;;;;5052232;28;20037;-72
2022/11/22 07:25:45;;;;;;;5.10;2.20;;;9.60;95.40;;;;;;5033522;28;20154;-72
2022/11/22 07:28:12;;;;;;;6.10;2.20;;;9.70;95.40;;;;;;5013004;28;20100;-72
2022/11/22 07:30:38;;;;;;;4.07;2.67;;;9.70;95.40;;;;;;5012591;28;20034;-71
2022/11/22 07:33:03;;;;;;;2.80;2.20;;;9.70;95.30;;;;;;5012975;28;20432;-72
2022/11/22 07:35:29;;;;;;;4.47;2.00;;;9.70;95.30;;;;;;5012582;28;20085;-72
2022/11/22 07:37:55;;;;;;;3.90;2.60;;;9.70;95.30;;;;;;5012890;28;20492;-72
2022/11/22 07:40:20;;;;;;;4.27;2.50;;;9.70;94.80;;;;;;5012693;28;20037;-71
2022/11/22 07:42:46;;;;;;;6.73;2.07;;;9.70;95.00;;;;;;5012846;28;20033;-71
2022/11/22 07:45:12;;;;;;;6.37;2.40;;;9.70;95.00;;;;;;5012022;28;20030;-72
2022/11/22 07:47:37;;;;;;;4.83;3.10;;;9.70;95.00;;;;;;5012980;28;20469;-72
2022/11/22 07:50:04;;;;;;;5.10;3.67;;;9.70;95.00;;;;;;5013118;28;20616;-72
2022/11/22 07:52:29;;;;;;;8.17;2.40;;;9.70;95.30;;;;;;5012868;28;20092;-71
2022/11/22 07:54:55;;;;;;;5.67;2.10;;;9.70;95.30;;;;;;5013096;28;20068;-72
2022/11/22 07:57:21;;;;;;;3.80;2.10;;;9.60;95.30;;;;;;5013114;28;20115;-72
2022/11/22 07:59:46;;;;;;;3.73;2.00;;;9.60;95.40;;;;;;5023227;28;20052;-72
2022/11/22 08:02:12;;;;;;;3.37;1.97;;;9.70;95.50;;;;;;5032434;28;20067;-72
2022/11/22 08:04:38;;;;;;;6.70;2.30;;;9.70;95.20;;;;;;5032666;28;20036;-73
2022/11/22 08:07:04;;;;;;;5.73;2.67;;;9.60;95.20;;;;;;5032843;28;20104;-72
2022/11/22 08:09:29;;;;;;;7.50;2.77;;;9.60;95.40;;;;;;5032889;28;20032;-72
2022/11/22 08:11:55;;;;;;;7.57;2.07;;;9.60;95.50;;;;;;5032928;28;20037;-71
2022/11/22 08:14:21;;;;;;;4.33;1.90;;;9.60;95.60;;;;;;5032421;28;20147;-72
2022/11/22 08:16:47;;;;;;;4.63;2.30;;;9.60;95.70;;;;;;5032322;28;20061;-72
2022/11/22 08:19:16;;;;;;;4.30;2.97;;;9.50;95.60;;;;;;5032813;28;20042;-72
2022/11/22 08:21:47;;;;;;;5.07;2.73;;;9.50;95.70;;;;;;5033114;28;20030;-72
2022/11/22 08:24:13;;;;;;;4.73;3.10;;;9.50;96.00;;;;;;5032639;28;20120;-72
2022/11/22 08:26:40;;;;;;;4.20;2.40;;;9.50;96.20;;;;;;5032572;28;20060;-72
2022/11/22 08:29:07;;;;;;;4.43;2.30;;;9.50;96.50;;;;;;5032437;28;20549;-72
2022/11/22 08:31:33;;;;;;;9.83;3.93;;;9.50;96.50;;;;;;5032364;28;20068;-72
2022/11/22 08:33:59;;;;;;;6.10;2.40;;;9.50;96.60;;;;;;5032614;28;20519;-72
2022/11/22 08:36:26;;;;;;;4.70;2.73;;;9.50;97.00;;;;;;5032935;28;20029;-71
2022/11/22 08:38:52;;;;;;;5.77;2.77;;;9.50;97.00;;;;;;5032402;28;20068;-72
2022/11/22 08:41:17;;;;;;;9.87;3.40;;;9.50;97.40;;;;;;5032633;28;20454;-71
2022/11/22 08:43:43;;;;;;;10.60;3.73;;;9.50;97.50;;;;;;5032440;28;20037;-71
2022/11/22 08:46:09;;;;;;;7.00;3.00;;;9.50;97.60;;;;;;5032601;28;20065;-71
2022/11/22 08:48:36;;;;;;;7.20;3.00;;;9.50;97.60;;;;;;5028398;28;20045;-71
2022/11/22 08:51:05;;;;;;;4.03;2.77;;;9.50;97.70;;;;;;5015381;28;20040;-72
2022/11/22 08:53:33;;;;;;;7.40;2.93;;;9.60;97.70;;;;;;5016189;28;20042;-71
2022/11/22 08:56:00;;;;;;;7.43;2.60;;;9.60;97.60;;;;;;5016028;28;20038;-71
2022/11/22 08:58:27;;;;;;;9.33;2.67;;;9.60;97.50;;;;;;5016258;28;20029;-72
2022/11/22 09:00:53;;;;;;;4.80;2.60;;;9.50;97.40;;;;;;5015906;28;20077;-72
2022/11/22 09:03:19;;;;;;;4.27;2.50;;;9.60;97.20;;;;;;5016002;28;20038;-72
2022/11/22 09:05:44;;;;;;;4.57;2.50;;;9.60;97.30;;;;;;5016162;28;20045;-72
2022/11/22 09:08:10;;;;;;;5.17;2.70;;;9.50;97.20;;;;;;5016013;28;20032;-71
2022/11/22 09:10:36;;;;;;;4.82;2.28;;;9.60;97.30;;;;;;5015911;28;20408;-72
2022/11/22 09:13:02;;;;;;;2.50;1.70;;;9.60;97.30;;;;;;5015602;28;20451;-72
2022/11/22 09:15:27;;;;;;;2.40;1.70;;;9.50;97.20;;;;;;5015661;28;20033;-72
2022/11/22 09:18:00;;;;;;;5.00;2.00;;;9.50;97.10;;;;;;5015761;28;20026;-72
2022/11/22 09:20:26;;;;;;;2.80;1.80;;;9.50;96.90;;;;;;5016018;28;20033;-72
2022/11/22 09:22:52;;;;;;;3.03;2.07;;;9.50;97.20;;;;;;5015837;28;20034;-72
2022/11/22 09:25:17;;;;;;;2.70;1.60;;;9.50;97.30;;;;;;5015637;28;20073;-72
2022/11/22 09:27:43;;;;;;;2.07;1.10;;;9.50;97.20;;;;;;5015524;28;20034;-72
2022/11/22 09:30:09;;;;;;;2.07;1.00;;;9.50;97.10;;;;;;5015303;28;20037;-73
2022/11/22 09:32:35;;;;;;;0.97;0.73;;;9.50;97.00;;;;;;5019372;28;20072;-72
2022/11/22 09:35:01;;;;;;;1.63;1.10;;;9.60;96.90;;;;;;5015163;28;20120;-72
2022/11/22 09:37:27;;;;;;;2.53;1.27;;;9.60;96.70;;;;;;5014595;28;20337;-72
2022/11/22 09:39:52;;;;;;;2.83;1.40;;;9.60;96.90;;;;;;5014771;28;20484;-72
2022/11/22 09:42:53;;;;;;;2.90;1.60;;;9.60;96.80;;;;;;5014929;28;20034;-72
2022/11/22 09:45:19;;;;;;;1.87;1.27;;;9.60;96.90;;;;;;4954979;28;20409;-71
2022/11/22 09:47:57;;;;;;;2.38;1.20;;;9.60;96.90;;;;;;5002651;28;20041;-72
2022/11/22 09:50:54;;;;;;;2.43;0.97;;;9.60;96.90;;;;;;5014904;28;20165;-72
2022/11/22 09:53:27;;;;;;;1.63;1.10;;;9.60;96.60;;;;;;5014574;28;20126;-75
2022/11/22 09:55:55;;;;;;;;;;;9.60;96.60;;;;;;5014997;28;20034;-75
2022/11/22 09:58:37;;;;;;;2.70;1.20;;;9.60;96.80;;;;;;5014174;28;19951;-75
2022/11/22 10:01:21;;;;;;;4.00;0.93;;;9.60;96.80;;;;;;5013469;28;20046;-74
2022/11/22 10:04:13;;;;;;;1.70;0.90;;;9.60;96.80;;;;;;5014952;28;20169;-75
2022/11/22 10:06:51;;;;;;;2.93;0.93;;;9.60;96.90;;;;;;4979082;28;20092;-75
2022/11/22 10:09:39;;;;;;;2.63;1.23;;;9.50;97.20;;;;;;5014378;28;20056;-75
2022/11/22 10:12:21;;;;;;;3.30;1.23;;;9.50;97.30;;;;;;5014611;28;20030;-75
2022/11/22 10:15:24;;;;;;;2.85;1.40;;;9.50;97.50;;;;;;5014031;28;20041;-75
2022/11/22 10:17:57;;;;;;;2.75;1.20;;;9.50;97.80;;;;;;5014522;28;20144;-74
2022/11/22 10:20:24;;;;;;;2.93;1.30;;;9.50;98.00;;;;;;5014596;28;20041;-73
2022/11/22 10:22:50;;;;;;;2.53;1.30;;;9.50;98.10;;;;;;5014042;28;20026;-75
2022/11/22 10:25:30;;;;;;;1.73;1.20;;;9.50;98.20;;;;;;5012513;28;20045;-75
2022/11/22 10:28:04;;;;;;;2.13;1.27;;;9.50;98.20;;;;;;5013140;28;20038;-74
2022/11/22 10:30:39;;;;;;;3.40;1.10;;;9.40;98.30;;;;;;5012920;28;20046;-75
2022/11/22 10:33:16;;;;;;;3.07;1.20;;;9.50;98.30;;;;;;5014402;28;20070;-74
2022/11/22 10:35:57;;;;;;;3.33;1.20;;;9.50;98.40;;;;;;5014689;28;20072;-75
2022/11/22 10:38:24;;;;;;;1.43;1.13;;;9.40;98.30;;;;;;5014440;28;20030;-74
2022/11/22 10:41:16;;;;;;;1.20;1.10;;;9.50;98.40;;;;;;5014367;28;20092;-74
2022/11/22 10:44:05;;;;;;;7.73;5.57;;;9.40;98.40;;;;;;5010345;28;20034;-74
2022/11/22 10:47:06;;;;;;;19.57;13.57;;;9.40;98.50;;;;;;5003374;28;20112;-74
2022/11/22 10:49:55;;;;;;;7.70;3.00;;;9.40;98.50;;;;;;5000264;28;20034;-74
2022/11/22 10:52:34;;;;;;;9.10;4.70;;;9.50;98.10;;;;;;5013689;28;20100;-74
2022/11/22 10:55:45;;;;;;;4.17;1.60;;;9.50;98.10;;;;;;5013898;28;20033;-74
2022/11/22 10:58:34;;;;;;;1.92;1.60;;;9.40;98.10;;;;;;5010168;28;20125;-74
2022/11/22 11:01:27;;;;;;;2.93;1.90;;;9.40;98.10;;;;;;4977275;28;20108;-75
2022/11/22 11:03:58;;;;;;;6.78;4.50;;;9.40;98.30;;;;;;5013754;28;20041;-74
2022/11/22 11:06:35;;;;;;;4.80;4.03;;;9.40;98.10;;;;;;5013644;28;20507;-74
2022/11/22 11:09:11;;;;;;;9.67;2.80;;;9.40;98.10;;;;;;5013765;28;20118;-75
2022/11/22 11:11:40;;;;;;;4.30;3.33;;;9.30;98.20;;;;;;5013548;28;20030;-74
2022/11/22 11:14:30;;;;;;;2.10;1.40;;;9.30;98.40;;;;;;5013365;28;20049;-75
2022/11/22 11:16:56;;;;;;;3.43;2.67;;;9.30;97.90;;;;;;5013888;28;20034;-74
2022/11/22 11:19:24;;;;;;;3.47;2.60;;;9.30;98.00;;;;;;5013395;28;20045;-75
2022/11/22 11:22:08;;;;;;;2.70;1.50;;;9.20;98.00;;;;;;5013602;28;20030;-75
2022/11/22 11:24:37;;;;;;;2.57;1.63;;;9.30;98.00;;;;;;5013639;28;20072;-75
2022/11/22 11:27:03;;;;;;;3.17;2.30;;;9.30;98.10;;;;;;5013473;28;20547;-74
2022/11/22 11:29:41;;;;;;;2.70;1.93;;;9.30;98.10;;;;;;5013561;28;20088;-75
2022/11/22 11:32:21;;;;;;;3.97;1.97;;;9.30;97.90;;;;;;5013267;28;20496;-73
2022/11/22 11:34:56;;;;;;;4.33;1.50;;;9.30;97.90;;;;;;5013520;28;20041;-74
2022/11/22 11:37:36;;;;;;;2.93;1.23;;;9.30;97.90;;;;;;5013406;28;20132;-75
2022/11/22 11:40:23;;;;;;;6.43;1.07;;;9.30;97.70;;;;;;5013142;28;20380;-75
2022/11/22 11:42:48;;;;;;;1.80;0.80;;;9.30;97.40;;;;;;5012798;28;20041;-74
2022/11/22 11:45:23;;;;;;;1.20;0.50;;;9.30;97.10;;;;;;5013242;28;20444;-74
2022/11/22 11:47:49;;;;;;;0.97;0.67;;;9.30;96.70;;;;;;5012984;28;20116;-75
2022/11/22 11:50:24;;;;;;;1.27;0.87;;;9.30;96.20;;;;;;5013042;28;20038;-74
2022/11/22 11:53:11;;;;;;;0.63;0.43;;;9.40;95.70;;;;;;5013121;28;20046;-76
2022/11/22 11:55:36;;;;;;;3.30;0.40;;;9.40;95.10;;;;;;5012350;28;20046;-75
2022/11/22 11:58:11;;;;;;;1.57;0.53;;;9.40;94.10;;;;;;5012897;28;20496;-74
2022/11/22 12:00:38;;;;;;;6.30;0.30;;;9.50;93.80;;;;;;5013052;28;20054;-75
2022/11/22 12:03:13;;;;;;;0.40;0.20;;;9.50;93.50;;;;;;5012983;28;20508;-75
2022/11/22 12:05:39;;;;;;;4.43;0.30;;;9.50;93.70;;;;;;5012959;28;20429;-75
2022/11/22 12:08:29;;;;;;;2.20;0.30;;;9.50;93.70;;;;;;5013488;28;20069;-75
2022/11/22 12:11:22;;;;;;;3.03;0.30;;;9.50;93.90;;;;;;5013431;28;20063;-75
2022/11/22 12:13:55;;;;;;;2.53;0.30;;;9.50;94.00;;;;;;5012878;28;20046;-75
2022/11/22 12:16:35;;;;;;;1.50;0.30;;;9.60;93.90;;;;;;5013016;28;20104;-75
2022/11/22 12:19:31;;;;;;;0.33;0.30;;;9.50;94.00;;;;;;5013160;28;20046;-74
2022/11/22 12:22:34;;;;;;;1.40;0.27;;;9.40;93.90;;;;;;5012913;28;20514;-74
2022/11/22 12:25:16;;;;;;;0.75;0.43;;;9.40;94.10;;;;;;4970616;28;20069;-74
2022/11/22 12:27:42;;;;;;;0.40;0.20;;;9.40;94.10;;;;;;5016776;28;20045;-74
2022/11/22 12:30:11;;;;;;;3.37;0.20;;;9.30;93.80;;;;;;5016671;28;20034;-75
2022/11/22 12:32:59;;;;;;;0.73;0.20;;;9.30;93.80;;;;;;5016360;28;20444;-75
2022/11/22 12:35:26;;;;;;;0.57;0.20;;;9.30;94.10;;;;;;5016808;28;20034;-75
2022/11/22 12:38:25;;;;;;;0.50;0.10;;;9.20;94.40;;;;;;5016430;28;20037;-74
2022/11/22 12:40:55;;;;;;;1.00;0.60;;;9.20;94.50;;;;;;5017036;28;20049;-75
2022/11/22 12:43:26;;;;;;;0.10;0.10;;;9.20;94.50;;;;;;5016738;28;20038;-75
2022/11/22 12:45:56;;;;;;;1.00;0.20;;;9.20;94.40;;;;;;5016920;28;20050;-75
2022/11/22 12:48:44;;;;;;;1.13;0.30;;;9.20;93.90;;;;;;5016456;28;20113;-75
2022/11/22 12:51:30;;;;;;;1.07;0.40;;;9.20;94.20;;;;;;5016427;28;20041;-75
2022/11/22 12:54:00;;;;;;;0.57;0.20;;;9.20;94.50;;;;;;5016194;28;20507;-74
2022/11/22 12:56:49;;;;;;;0.30;0.20;;;9.10;94.80;;;;;;5016444;28;20582;-74
2022/11/22 12:59:42;;;;;;;0.23;0.13;;;9.10;94.60;;;;;;5016021;28;20053;-74
2022/11/22 13:02:28;;;;;;;1.37;0.30;;;9.20;94.60;;;;;;5015663;28;20040;-75
2022/11/22 13:05:08;;;;;;;0.43;0.27;;;9.10;94.70;;;;;;5015923;28;20061;-75
2022/11/22 13:08:08;;;;;;;0.63;0.20;;;9.10;94.60;;;;;;5016022;28;20104;-75
2022/11/22 13:11:14;;;;;;;0.60;0.30;;;9.10;94.00;;;;;;4985485;28;20064;-75
2022/11/22 13:13:55;;;;;;;2.20;0.30;;;9.10;94.00;;;;;;4936271;29;20066;-74
2022/11/22 13:16:21;;;;;;;0.10;0.10;;;9.10;93.40;;;;;;5007496;28;20066;-74
2022/11/22 13:18:58;;;;;;;0.20;0.20;;;9.00;93.70;;;;;;5016144;28;20065;-74
2022/11/22 13:21:36;;;;;;;0.10;0.10;;;9.10;93.70;;;;;;5016009;28;20121;-74
2022/11/22 13:24:15;;;;;;;0.57;0.20;;;9.00;93.40;;;;;;5015753;28;20034;-74
2022/11/22 13:27:02;;;;;;;0.90;0.47;;;9.00;93.70;;;;;;5015734;28;20042;-74
2022/11/22 13:29:30;;;;;;;0.50;0.33;;;9.00;93.60;;;;;;5015889;28;20049;-74
2022/11/22 13:32:11;;;;;;;0.20;0.20;;;9.00;93.70;;;;;;5015495;28;20061;-74
2022/11/22 13:34:40;;;;;;;1.17;0.60;;;9.00;93.80;;;;;;5015655;28;20038;-74
2022/11/22 13:37:14;;;;;;;1.50;0.77;;;9.00;93.60;;;;;;5015029;28;20117;-75
2022/11/22 13:39:43;;;;;;;1.50;0.70;;;9.00;93.30;;;;;;5015423;28;20038;-75
2022/11/22 13:42:18;;;;;;;1.73;0.90;;;9.10;93.10;;;;;;5015163;28;20041;-74
2022/11/22 16:28:33;;;;;;;1.03;0.43;;;9.40;86.40;;;;;;5019017;28;20049;-77
2022/11/22 16:31:30;;;;;;;0.90;0.23;;;9.40;86.70;;;;;;5013009;28;20050;-76
2022/11/22 16:33:56;;;;;;;0.50;0.30;;;9.40;86.30;;;;;;5011411;28;20441;-76
2022/11/22 16:36:23;;;;;;;1.17;0.70;;;9.40;85.50;;;;;;5012541;28;20134;-76
2022/11/22 16:38:50;;;;;;;0.23;0.23;;;9.40;86.30;;;;;;4994785;28;20427;-76
2022/11/22 16:41:27;;;;;;;0.40;0.30;;;9.40;86.50;;;;;;5012262;28;20042;-77
2022/11/22 16:43:57;;;;;;;8.97;6.20;;;9.50;86.80;;;;;;5012288;28;20034;-76
2022/11/22 16:46:23;;;;;;;1.17;1.07;;;9.50;87.00;;;;;;5012704;28;20034;-76
2022/11/22 16:48:48;;;;;;;1.43;1.00;;;9.50;86.80;;;;;;5012419;28;20068;-76
2022/11/22 16:51:19;;;;;;;4.63;2.13;;;9.50;87.90;;;;;;5011998;28;20388;-76
2022/11/22 16:53:47;;;;;;;2.00;1.80;;;9.40;88.50;;;;;;5012247;28;20041;-76
2022/11/22 16:56:21;;;;;;;1.27;0.93;;;9.40;88.30;;;;;;5012564;28;20038;-76
2022/11/22 16:58:48;;;;;;;3.53;2.43;;;9.40;87.60;;;;;;5012134;28;20504;-75
2022/11/22 17:01:23;;;;;;;0.50;0.40;;;9.40;88.10;;;;;;5009912;28;20155;-76
2022/11/22 17:03:52;;;;;;;0.40;0.40;;;9.40;88.00;;;;;;5009007;28;20530;-75
2022/11/22 17:06:21;;;;;;;0.73;0.43;;;9.40;87.40;;;;;;5009690;28;20527;-76
2022/11/22 17:08:48;;;;;;;0.10;0.10;;;9.40;87.90;;;;;;5011287;28;20041;-76
2022/11/22 17:11:16;;;;;;;0.37;0.30;;;9.40;87.00;;;;;;5013394;28;20081;-76
2022/11/22 17:13:42;;;;;;;0.23;0.20;;;9.40;88.10;;;;;;5012864;28;20140;-75
2022/11/22 17:16:09;;;;;;;0.60;0.40;;;9.40;88.30;;;;;;5015410;28;20045;-76
2022/11/22 17:18:36;;;;;;;0.97;0.20;;;9.40;87.90;;;;;;5015581;28;20552;-75
2022/11/22 17:21:03;;;;;;;0.17;0.13;;;9.40;87.50;;;;;;5015753;28;20448;-75
2022/11/22 17:23:37;;;;;;;0.30;0.20;;;9.40;84.90;;;;;;5014319;28;20092;-77
2022/11/22 17:26:03;;;;;;;0.10;0.10;;;9.40;85.70;;;;;;5014583;28;20033;-77
2022/11/22 17:28:30;;;;;;;0.50;0.50;;;9.40;86.40;;;;;;5014271;28;20049;-77
2022/11/22 17:31:00;;;;;;;0.13;0.13;;;9.40;86.70;;;;;;5014499;28;20064;-76
2022/11/22 17:33:26;;;;;;;0.17;0.13;;;9.40;87.00;;;;;;5015395;28;20092;-76
2022/11/22 17:35:52;;;;;;;0.40;0.10;;;9.40;87.10;;;;;;5015411;28;20037;-76
2022/11/22 17:38:18;;;;;;;0.10;0.10;;;9.40;86.10;;;;;;5015151;28;20030;-76
2022/11/22 17:40:44;;;;;;;0.50;0.20;;;9.40;85.20;;;;;;5015302;28;20488;-77
2022/11/22 17:43:10;;;;;;;1.07;0.20;;;9.40;85.70;;;;;;5015403;28;20069;-76
2022/11/22 17:45:43;;;;;;;0.20;0.20;;;9.40;85.70;;;;;;5015272;28;20113;-76
2022/11/22 17:48:10;;;;;;;0.43;0.30;;;9.40;85.90;;;;;;5015459;28;20068;-76
2022/11/22 17:50:36;;;;;;;3.70;0.50;;;9.40;86.10;;;;;;5014871;28;20061;-76
2022/11/22 17:53:02;;;;;;;0.90;0.50;;;9.30;86.20;;;;;;5014909;28;20042;-77
2022/11/22 17:55:28;;;;;;;3.07;0.73;;;9.40;87.00;;;;;;5015233;28;20045;-75
2022/11/22 17:57:54;;;;;;;0.53;0.30;;;9.40;86.10;;;;;;5015223;28;20030;-75
2022/11/22 18:00:20;;;;;;;0.33;0.20;;;9.30;86.00;;;;;;5014754;28;20030;-76
2022/11/22 18:02:46;;;;;;;0.20;0.10;;;9.40;85.00;;;;;;5014901;28;20037;-76
2022/11/22 18:05:12;;;;;;;0.63;0.23;;;9.40;85.60;;;;;;5014895;28;20038;-76
2022/11/22 18:07:37;;;;;;;0.37;0.10;;;9.30;86.10;;;;;;5014635;28;20030;-77
2022/11/22 18:10:08;;;;;;;0.10;0.10;;;9.30;85.70;;;;;;5014995;28;20492;-77
2022/11/22 18:12:35;;;;;;;2.03;0.10;;;9.30;86.10;;;;;;5014480;28;20030;-75
2022/11/22 18:15:01;;;;;;;0.30;0.10;;;9.40;85.30;;;;;;5014592;28;20490;-76